createdAt,value
2022-10-19T00:00:13.100Z,1.63
2022-10-19T00:02:42.471Z,1.63
2022-10-19T00:05:11.901Z,1.64
2022-10-19T00:07:41.390Z,1.66
2022-10-19T00:10:12.868Z,1.66
2022-10-19T00:12:42.272Z,1.62
2022-10-19T00:15:12.563Z,1.57
2022-10-19T00:17:43.475Z,1.58
2022-10-19T00:20:14.568Z,1.55
2022-10-19T00:22:44.000Z,1.57
2022-10-19T00:25:14.853Z,1.58
2022-10-19T00:27:44.790Z,1.49
2022-10-19T00:30:14.159Z,1.41
2022-10-19T00:32:43.418Z,1.40
2022-10-19T00:35:12.845Z,1.43
2022-10-19T00:37:42.206Z,1.43
2022-10-19T00:40:14.373Z,1.41
2022-10-19T00:42:43.670Z,1.42
2022-10-19T00:45:18.370Z,1.37
2022-10-19T00:47:49.351Z,1.38
2022-10-19T00:51:35.611Z,1.39
2022-10-19T00:54:08.122Z,1.35
2022-10-19T00:56:41.291Z,1.27
2022-10-19T00:59:12.065Z,1.22
2022-10-19T01:01:41.496Z,1.20
2022-10-19T01:04:11.745Z,1.24
2022-10-19T01:06:44.129Z,1.24
2022-10-19T01:09:13.591Z,1.20
2022-10-19T01:11:53.610Z,1.15
2022-10-19T01:14:42.407Z,1.18
2022-10-19T01:17:22.391Z,1.12
2022-10-19T01:20:57.205Z,1.13
2022-10-19T01:24:37.007Z,1.12
2022-10-19T01:27:49.265Z,1.06
2022-10-19T01:30:44.243Z,1.06
2022-10-19T01:33:33.436Z,1.01
2022-10-19T01:36:15.244Z,1.07
2022-10-19T01:38:57.866Z,0.98
2022-10-19T01:41:37.845Z,1.00
2022-10-19T01:44:18.326Z,1.05
2022-10-19T01:46:54.266Z,1.07
2022-10-19T01:49:39.932Z,1.05
2022-10-19T01:52:14.206Z,1.03
2022-10-19T01:54:49.009Z,1.02
2022-10-19T01:57:24.329Z,0.98
2022-10-19T01:59:55.846Z,0.98
2022-10-19T02:02:28.545Z,0.95
2022-10-19T02:04:59.932Z,0.97
2022-10-19T02:07:30.351Z,0.94
2022-10-19T02:09:59.935Z,0.92
2022-10-19T02:12:33.628Z,0.94
2022-10-19T02:15:11.064Z,0.96
2022-10-19T02:17:48.047Z,0.97
2022-10-19T02:20:18.846Z,0.91
2022-10-19T02:22:48.388Z,0.90
2022-10-19T02:25:18.226Z,0.87
2022-10-19T02:27:47.945Z,0.85
2022-10-19T02:30:19.805Z,0.86
2022-10-19T02:32:52.053Z,0.85
2022-10-19T02:35:22.774Z,0.82
2022-10-19T02:37:52.247Z,0.84
2022-10-19T02:40:22.325Z,0.79
2022-10-19T02:42:58.314Z,0.78
2022-10-19T02:45:32.346Z,0.81
2022-10-19T02:48:07.845Z,0.78
2022-10-19T02:50:37.602Z,0.70
2022-10-19T02:53:06.891Z,0.70
2022-10-19T02:55:36.700Z,0.81
2022-10-19T02:58:06.127Z,0.83
2022-10-19T03:00:35.533Z,0.77
2022-10-19T03:03:06.484Z,0.77
2022-10-19T03:05:35.861Z,0.75
2022-10-19T03:08:05.291Z,0.71
2022-10-19T03:10:34.710Z,0.67
2022-10-19T03:13:04.204Z,0.69
2022-10-19T03:15:33.590Z,0.65
2022-10-19T03:18:04.358Z,0.59
2022-10-19T03:20:33.724Z,0.62
2022-10-19T03:23:03.113Z,0.61
2022-10-19T03:25:32.432Z,0.63
2022-10-19T03:28:02.056Z,0.66
2022-10-19T03:30:31.505Z,0.68
2022-10-19T03:33:00.781Z,0.69
2022-10-19T03:35:31.509Z,0.61
2022-10-19T03:38:00.809Z,0.56
2022-10-19T03:40:30.143Z,0.54
2022-10-19T03:42:59.677Z,0.52
2022-10-19T03:45:28.924Z,0.44
2022-10-19T03:47:58.465Z,0.50
2022-10-19T03:52:32.586Z,0.44
2022-10-19T03:55:01.966Z,0.45
2022-10-19T03:57:31.593Z,0.46
2022-10-19T04:00:01.222Z,0.49
2022-10-19T04:02:31.485Z,0.48
2022-10-19T04:05:00.828Z,0.44
2022-10-19T04:07:31.995Z,0.43
2022-10-19T04:10:01.751Z,0.47
2022-10-19T04:12:31.048Z,0.54
2022-10-19T04:15:00.391Z,0.54
2022-10-19T04:17:29.727Z,0.53
2022-10-19T04:19:59.005Z,0.57
2022-10-19T04:22:28.428Z,0.51
2022-10-19T04:24:59.188Z,0.44
2022-10-19T04:27:28.743Z,0.44
2022-10-19T04:29:58.047Z,0.42
2022-10-19T04:32:27.419Z,0.41
2022-10-19T04:34:57.729Z,0.41
2022-10-19T04:37:27.141Z,0.37
2022-10-19T04:39:57.912Z,0.37
2022-10-19T04:42:27.144Z,0.34
2022-10-19T04:44:56.505Z,0.27
2022-10-19T04:47:25.974Z,0.28
2022-10-19T04:49:55.381Z,0.33
2022-10-19T04:52:24.790Z,0.41
2022-10-19T04:54:54.205Z,0.40
2022-10-19T04:57:25.033Z,0.43
2022-10-19T04:59:54.324Z,0.40
2022-10-19T05:02:23.566Z,0.40
2022-10-19T05:04:52.831Z,0.46
2022-10-19T05:07:22.170Z,0.42
2022-10-19T05:09:51.461Z,0.44
2022-10-19T05:12:21.025Z,0.46
2022-10-19T05:14:51.688Z,0.57
2022-10-19T05:17:20.986Z,0.67
2022-10-19T05:19:50.234Z,0.71
2022-10-19T05:22:19.707Z,0.75
2022-10-19T05:24:53.306Z,0.80
2022-10-19T05:27:25.325Z,0.90
2022-10-19T05:29:56.228Z,0.95
2022-10-19T05:32:25.480Z,0.97
2022-10-19T05:34:55.092Z,1.09
2022-10-19T05:37:25.931Z,1.24
2022-10-19T05:39:56.709Z,1.35
2022-10-19T05:42:26.065Z,1.45
2022-10-19T05:44:56.709Z,1.60
2022-10-19T05:47:28.653Z,1.78
2022-10-19T05:50:00.292Z,1.93
2022-10-19T05:52:30.727Z,2.12
2022-10-19T05:55:00.024Z,2.30
2022-10-19T05:57:29.211Z,2.47
2022-10-19T05:59:59.924Z,2.66
2022-10-19T06:02:29.172Z,2.82
2022-10-19T06:04:58.615Z,3.01
2022-10-19T06:07:27.948Z,3.22
2022-10-19T06:09:57.205Z,3.34
2022-10-19T06:12:26.502Z,3.55
2022-10-19T06:14:55.743Z,3.73
2022-10-19T06:17:26.434Z,3.92
2022-10-19T06:19:55.953Z,4.15
2022-10-19T06:22:25.328Z,4.38
2022-10-19T06:24:54.745Z,4.63
2022-10-19T06:27:24.198Z,4.86
2022-10-19T06:29:53.508Z,5.13
2022-10-19T06:32:22.881Z,5.35
2022-10-19T06:34:56.388Z,5.63
2022-10-19T06:37:26.348Z,5.85
2022-10-19T06:39:55.655Z,6.07
2022-10-19T06:42:24.983Z,6.33
2022-10-19T06:44:54.216Z,6.58
2022-10-19T06:47:48.766Z,6.87
2022-10-19T06:52:32.588Z,7.33
2022-10-19T06:55:06.369Z,7.63
2022-10-19T06:57:36.021Z,7.89
2022-10-19T07:00:07.758Z,8.20
2022-10-19T07:02:37.213Z,8.47
2022-10-19T07:05:08.440Z,8.71
2022-10-19T07:07:39.348Z,8.93
2022-10-19T07:10:09.871Z,9.19
2022-10-19T07:12:39.233Z,9.41
2022-10-19T07:15:10.285Z,9.65
2022-10-19T07:17:40.864Z,9.86
2022-10-19T07:20:12.125Z,10.10
2022-10-19T07:22:42.875Z,10.41
2022-10-19T07:25:12.272Z,10.64
2022-10-19T07:27:41.917Z,10.89
2022-10-19T07:30:12.286Z,11.14
2022-10-19T07:32:46.663Z,11.39
2022-10-19T07:35:16.755Z,11.70
2022-10-19T07:37:47.494Z,12.02
2022-10-19T07:40:16.875Z,12.35
2022-10-19T07:42:46.325Z,12.60
2022-10-19T07:45:15.966Z,12.91
2022-10-19T07:47:46.716Z,13.17
2022-10-19T07:50:16.096Z,13.40
2022-10-19T07:52:47.876Z,13.62
2022-10-19T07:55:17.470Z,13.88
2022-10-19T07:57:49.833Z,14.10
2022-10-19T08:00:19.792Z,14.31
2022-10-19T08:02:59.819Z,14.48
2022-10-19T08:05:39.012Z,14.66
2022-10-19T08:08:09.867Z,14.85
2022-10-19T08:10:39.323Z,15.00
2022-10-19T08:13:08.764Z,15.14
2022-10-19T08:15:38.283Z,15.36
2022-10-19T08:18:07.718Z,15.49
2022-10-19T08:20:37.092Z,15.63
2022-10-19T08:23:06.545Z,15.77
2022-10-19T08:25:37.693Z,15.93
2022-10-19T08:28:07.219Z,16.12
2022-10-19T08:30:37.369Z,16.22
2022-10-19T08:33:08.455Z,16.24
2022-10-19T08:35:38.200Z,16.27
2022-10-19T08:38:07.732Z,16.38
2022-10-19T08:40:39.035Z,16.58
2022-10-19T08:43:18.087Z,16.72
2022-10-19T08:45:53.599Z,16.70
2022-10-19T08:48:30.499Z,16.80
2022-10-19T08:51:01.666Z,16.95
2022-10-19T08:53:41.338Z,17.06
2022-10-19T08:56:49.228Z,17.12
2022-10-19T08:59:29.499Z,17.11
2022-10-19T09:02:03.909Z,17.12
2022-10-19T09:04:38.295Z,17.20
2022-10-19T09:07:27.127Z,17.25
2022-10-19T09:10:03.208Z,17.14
2022-10-19T09:12:46.706Z,16.97
2022-10-19T09:15:20.889Z,17.02
2022-10-19T09:17:50.257Z,17.01
2022-10-19T09:20:22.979Z,17.14
2022-10-19T09:23:07.607Z,17.24
2022-10-19T09:25:41.146Z,17.30
2022-10-19T09:28:36.657Z,17.33
2022-10-19T09:31:15.091Z,17.24
2022-10-19T09:33:46.721Z,17.29
2022-10-19T09:36:22.935Z,17.40
2022-10-19T09:38:57.467Z,17.43
2022-10-19T09:41:27.643Z,17.44
2022-10-19T09:43:59.365Z,17.31
2022-10-19T09:46:52.519Z,17.43
2022-10-19T09:52:38.766Z,17.57
2022-10-19T09:55:30.521Z,17.64
2022-10-19T09:58:07.095Z,17.58
2022-10-19T10:00:43.566Z,17.53
2022-10-19T10:03:31.219Z,17.59
2022-10-19T10:06:04.904Z,17.61
2022-10-19T10:08:38.932Z,17.62
2022-10-19T10:11:13.270Z,17.48
2022-10-19T10:13:45.629Z,17.55
2022-10-19T10:16:18.287Z,17.62
2022-10-19T10:18:56.978Z,17.65
2022-10-19T10:21:32.382Z,17.69
2022-10-19T10:24:06.945Z,17.70
2022-10-19T10:26:43.035Z,17.77
2022-10-19T10:29:24.494Z,17.78
2022-10-19T10:31:57.346Z,17.77
2022-10-19T10:34:50.083Z,17.78
2022-10-19T10:37:24.787Z,17.82
2022-10-19T10:40:01.826Z,17.70
2022-10-19T10:42:41.949Z,17.68
2022-10-19T10:45:22.014Z,17.56
2022-10-19T10:47:51.794Z,17.59
2022-10-19T10:50:26.284Z,17.60
2022-10-19T10:53:02.150Z,17.60
2022-10-19T10:55:34.911Z,17.51
2022-10-19T10:58:18.737Z,17.59
2022-10-19T11:00:51.532Z,17.65
2022-10-19T11:03:29.137Z,17.62
2022-10-19T11:06:02.892Z,17.55
2022-10-19T11:08:40.924Z,17.51
2022-10-19T11:11:21.476Z,17.61
2022-10-19T11:13:59.324Z,17.76
2022-10-19T11:16:35.345Z,17.78
2022-10-19T11:19:17.292Z,17.91
2022-10-19T11:21:58.252Z,18.10
2022-10-19T11:24:42.782Z,18.28
2022-10-19T11:27:33.111Z,18.48
2022-10-19T11:30:12.328Z,18.56
2022-10-19T11:33:05.808Z,18.62
2022-10-19T11:35:47.913Z,18.59
2022-10-19T11:38:37.787Z,18.61
2022-10-19T11:41:22.552Z,18.69
2022-10-19T11:44:17.067Z,18.88
2022-10-19T11:47:00.827Z,18.78
2022-10-19T11:49:47.573Z,18.77
2022-10-19T11:52:25.365Z,18.64
2022-10-19T11:55:08.030Z,18.31
2022-10-19T11:57:47.416Z,18.03
2022-10-19T12:00:38.621Z,17.86
2022-10-19T12:03:56.473Z,17.62
2022-10-19T12:06:33.961Z,17.53
2022-10-19T12:09:24.210Z,17.46
2022-10-19T12:12:31.034Z,17.30
2022-10-19T12:15:20.310Z,17.22
2022-10-19T12:17:53.365Z,17.05
2022-10-19T12:20:31.286Z,16.92
2022-10-19T12:23:02.486Z,16.86
2022-10-19T12:25:31.968Z,16.84
2022-10-19T12:28:01.345Z,16.76
2022-10-19T12:30:32.208Z,16.67
2022-10-19T12:33:14.132Z,16.67
2022-10-19T12:36:01.312Z,16.67
2022-10-19T12:38:45.986Z,16.68
2022-10-19T12:41:27.587Z,16.66
2022-10-19T12:47:10.211Z,16.71
2022-10-19T12:52:44.647Z,16.53
2022-10-19T12:55:34.828Z,16.39
2022-10-19T12:58:08.103Z,16.16
2022-10-19T13:00:39.933Z,15.93
2022-10-19T13:03:17.501Z,15.74
2022-10-19T13:05:59.235Z,15.55
2022-10-19T13:08:36.999Z,15.48
2022-10-19T13:11:10.185Z,15.50
2022-10-19T13:14:02.046Z,15.44
2022-10-19T13:17:00.160Z,15.37
2022-10-19T13:19:30.095Z,15.26
2022-10-19T13:22:29.796Z,15.07
2022-10-19T13:25:28.309Z,14.98
2022-10-19T13:28:03.371Z,14.93
2022-10-19T13:31:08.233Z,14.87
2022-10-19T13:33:57.688Z,14.85
2022-10-19T13:36:28.647Z,14.81
2022-10-19T13:39:15.791Z,14.77
2022-10-19T13:41:57.502Z,14.65
2022-10-19T13:44:36.794Z,14.58
2022-10-19T13:47:32.855Z,14.43
2022-10-19T13:50:36.807Z,14.37
2022-10-19T13:53:42.206Z,14.28
2022-10-19T13:56:44.545Z,14.20
2022-10-19T13:59:52.374Z,14.15
2022-10-19T14:03:26.724Z,14.07
2022-10-19T14:06:27.497Z,14.03
2022-10-19T14:09:49.580Z,13.91
2022-10-19T14:12:24.969Z,13.79
2022-10-19T14:14:55.917Z,13.77
2022-10-19T14:17:28.791Z,13.76
2022-10-19T14:20:00.160Z,13.75
2022-10-19T14:22:33.665Z,13.70
2022-10-19T14:25:06.590Z,13.59
2022-10-19T14:27:37.436Z,13.50
2022-10-19T14:30:24.070Z,13.44
2022-10-19T14:32:56.844Z,13.37
2022-10-19T14:35:33.708Z,13.28
2022-10-19T14:38:03.409Z,13.20
2022-10-19T14:40:35.919Z,13.19
2022-10-19T14:43:23.283Z,13.10
2022-10-19T14:46:16.749Z,13.00
2022-10-19T14:48:48.909Z,12.89
2022-10-19T14:51:34.848Z,12.72
2022-10-19T14:54:08.948Z,12.59
2022-10-19T14:56:48.411Z,12.44
2022-10-19T14:59:28.410Z,12.30
2022-10-19T15:02:01.869Z,12.11
2022-10-19T15:04:35.245Z,11.94
2022-10-19T15:07:15.328Z,11.80
2022-10-19T15:09:53.230Z,11.65
2022-10-19T15:12:30.447Z,11.53
2022-10-19T15:15:00.495Z,11.38
2022-10-19T15:17:33.676Z,11.11
2022-10-19T15:20:04.701Z,10.96
2022-10-19T15:22:42.547Z,10.86
2022-10-19T15:25:35.521Z,10.70
2022-10-19T15:28:33.917Z,10.58
2022-10-19T15:31:13.934Z,10.37
2022-10-19T15:33:49.785Z,10.20
2022-10-19T15:36:21.440Z,10.03
2022-10-19T15:39:11.533Z,9.93
2022-10-19T15:41:50.326Z,9.76
2022-10-19T15:44:35.695Z,9.69
2022-10-19T15:47:25.074Z,9.62
2022-10-19T15:52:35.213Z,9.37
2022-10-19T15:55:04.869Z,9.26
2022-10-19T15:57:36.508Z,9.08
2022-10-19T16:00:15.932Z,8.91
2022-10-19T16:02:45.347Z,8.80
2022-10-19T16:05:14.685Z,8.76
2022-10-19T16:07:45.667Z,8.60
2022-10-19T16:10:19.856Z,8.50
2022-10-19T16:12:49.548Z,8.39
2022-10-19T16:15:23.587Z,8.30
2022-10-19T16:17:55.377Z,8.15
2022-10-19T16:20:26.774Z,8.00
2022-10-19T16:22:58.469Z,7.90
2022-10-19T16:25:30.146Z,7.81
2022-10-19T16:27:59.448Z,7.71
2022-10-19T16:30:28.804Z,7.65
2022-10-19T16:32:59.289Z,7.65
2022-10-19T16:35:28.547Z,7.58
2022-10-19T16:38:00.267Z,7.49
2022-10-19T16:40:30.312Z,7.40
2022-10-19T16:43:00.812Z,7.31
2022-10-19T16:45:30.267Z,7.19
2022-10-19T16:47:59.826Z,7.12
2022-10-19T16:50:29.031Z,7.09
2022-10-19T16:53:10.452Z,7.06
2022-10-19T16:55:41.125Z,7.04
2022-10-19T16:58:10.486Z,6.95
2022-10-19T17:00:39.818Z,6.75
2022-10-19T17:03:09.088Z,6.71
2022-10-19T17:05:40.425Z,6.65
2022-10-19T17:08:11.942Z,6.60
2022-10-19T17:10:41.375Z,6.58
2022-10-19T17:13:10.627Z,6.46
2022-10-19T17:15:43.642Z,6.28
2022-10-19T17:18:13.201Z,6.22
2022-10-19T17:20:42.579Z,6.23
2022-10-19T17:23:13.511Z,6.26
2022-10-19T17:25:49.990Z,6.15
2022-10-19T17:28:21.013Z,6.04
2022-10-19T17:30:52.892Z,5.96
2022-10-19T17:33:22.726Z,5.93
2022-10-19T17:35:52.115Z,5.89
2022-10-19T17:38:22.889Z,5.85
2022-10-19T17:40:52.287Z,5.78
2022-10-19T17:43:21.727Z,5.69
2022-10-19T17:46:00.519Z,5.66
2022-10-19T17:48:30.045Z,5.62
2022-10-19T17:51:01.450Z,5.63
2022-10-19T17:53:33.187Z,5.62
2022-10-19T17:56:04.326Z,5.56
2022-10-19T17:58:36.389Z,5.48
2022-10-19T18:01:09.423Z,5.49
2022-10-19T18:03:41.232Z,5.48
2022-10-19T18:06:13.353Z,5.39
2022-10-19T18:08:46.974Z,5.27
2022-10-19T18:11:19.461Z,5.26
2022-10-19T18:13:50.633Z,5.24
2022-10-19T18:16:24.080Z,5.22
2022-10-19T18:18:56.627Z,5.22
2022-10-19T18:21:28.685Z,5.16
2022-10-19T18:24:01.634Z,5.11
2022-10-19T18:26:34.711Z,5.06
2022-10-19T18:29:13.739Z,5.02
2022-10-19T18:31:43.799Z,5.00
2022-10-19T18:34:17.025Z,5.01
2022-10-19T18:36:46.728Z,4.89
2022-10-19T18:39:17.595Z,4.83
2022-10-19T18:41:48.490Z,4.85
2022-10-19T18:44:20.851Z,4.80
2022-10-19T18:46:51.567Z,4.81
2022-10-19T18:52:36.349Z,4.72
2022-10-19T18:55:06.813Z,4.67
2022-10-19T18:57:36.461Z,4.65
2022-10-19T19:00:06.639Z,4.64
2022-10-19T19:02:46.592Z,4.63
2022-10-19T19:05:16.891Z,4.56
2022-10-19T19:07:47.736Z,4.57
2022-10-19T19:10:17.577Z,4.54
2022-10-19T19:12:49.221Z,4.53
2022-10-19T19:15:20.027Z,4.51
2022-10-19T19:17:49.816Z,4.50
2022-10-19T19:20:19.454Z,4.51
2022-10-19T19:22:50.331Z,4.48
2022-10-19T19:25:19.938Z,4.49
2022-10-19T19:27:49.256Z,4.50
2022-10-19T19:30:18.911Z,4.53
2022-10-19T19:32:48.257Z,4.48
2022-10-19T19:35:17.756Z,4.40
2022-10-19T19:37:48.506Z,4.47
2022-10-19T19:40:18.073Z,4.43
2022-10-19T19:42:47.426Z,4.36
2022-10-19T19:45:17.150Z,4.28
2022-10-19T19:47:46.473Z,4.32
2022-10-19T19:50:15.833Z,4.37
2022-10-19T19:52:45.248Z,4.31
2022-10-19T19:55:16.366Z,4.33
2022-10-19T19:57:48.565Z,4.31
2022-10-19T20:00:18.554Z,4.27
2022-10-19T20:02:53.484Z,4.22
2022-10-19T20:05:23.085Z,4.18
2022-10-19T20:07:52.739Z,4.16
2022-10-19T20:10:23.786Z,4.16
2022-10-19T20:12:55.685Z,4.12
2022-10-19T20:15:25.125Z,4.08
2022-10-19T20:17:54.431Z,4.10
2022-10-19T20:20:23.967Z,4.02
2022-10-19T20:22:53.231Z,4.03
2022-10-19T20:25:23.968Z,4.09
2022-10-19T20:27:53.226Z,4.11
2022-10-19T20:30:22.664Z,4.06
2022-10-19T20:32:56.247Z,4.01
2022-10-19T20:35:25.448Z,4.02
2022-10-19T20:37:57.908Z,3.97
2022-10-19T20:42:58.983Z,3.86
2022-10-19T20:45:28.311Z,3.84
2022-10-19T20:47:57.753Z,3.89
2022-10-19T20:50:27.248Z,3.95
2022-10-19T20:52:56.571Z,3.94
2022-10-19T20:55:27.325Z,3.86
2022-10-19T20:57:56.613Z,3.89
2022-10-19T21:00:25.888Z,3.87
2022-10-19T21:02:55.351Z,3.79
2022-10-19T21:05:24.600Z,3.79
2022-10-19T21:07:54.868Z,3.80
2022-10-19T21:10:24.129Z,3.75
2022-10-19T21:12:54.757Z,3.72
2022-10-19T21:15:24.035Z,3.68
2022-10-19T21:17:53.290Z,3.63
2022-10-19T21:20:22.664Z,3.54
2022-10-19T21:22:52.028Z,3.58
2022-10-19T21:25:21.503Z,3.60
2022-10-19T21:27:55.548Z,3.62
2022-10-19T21:30:25.004Z,3.63
2022-10-19T21:32:54.296Z,3.63
2022-10-19T21:35:23.633Z,3.51
2022-10-19T21:37:53.188Z,3.45
2022-10-19T21:40:22.605Z,3.47
2022-10-19T21:42:52.055Z,3.46
2022-10-19T21:45:30.161Z,3.45
2022-10-19T21:48:00.178Z,3.42
2022-10-19T21:52:31.953Z,3.36
2022-10-19T21:55:01.484Z,3.27
2022-10-19T21:57:30.809Z,3.32
2022-10-19T22:00:00.134Z,3.39
2022-10-19T22:02:29.554Z,3.40
2022-10-19T22:04:58.846Z,3.45
2022-10-19T22:07:28.331Z,3.43
2022-10-19T22:09:59.008Z,3.38
2022-10-19T22:12:28.412Z,3.31
2022-10-19T22:14:57.750Z,3.23
2022-10-19T22:17:27.296Z,3.22
2022-10-19T22:19:56.572Z,3.26
2022-10-19T22:22:25.868Z,3.29
2022-10-19T22:24:57.673Z,3.07
2022-10-19T22:27:27.229Z,2.93
2022-10-19T22:29:56.574Z,3.05
2022-10-19T22:32:25.833Z,3.14
2022-10-19T22:34:55.101Z,3.26
2022-10-19T22:37:24.476Z,3.26
2022-10-19T22:39:53.769Z,3.23
2022-10-19T22:42:24.648Z,3.18
2022-10-19T22:44:53.930Z,3.30
2022-10-19T22:47:23.202Z,3.34
2022-10-19T22:49:52.430Z,3.23
2022-10-19T22:52:21.832Z,3.20
2022-10-19T22:54:51.647Z,3.18
2022-10-19T22:57:21.125Z,3.12
2022-10-19T22:59:51.831Z,3.17
2022-10-19T23:02:21.194Z,3.15
2022-10-19T23:04:50.605Z,3.12
2022-10-19T23:07:19.864Z,3.07
2022-10-19T23:09:49.127Z,3.01
2022-10-19T23:12:18.368Z,3.02
2022-10-19T23:14:47.673Z,3.05
2022-10-19T23:17:18.347Z,3.00
2022-10-19T23:19:47.722Z,2.97
2022-10-19T23:22:17.133Z,2.97
2022-10-19T23:24:46.547Z,2.98
2022-10-19T23:27:16.206Z,2.96
2022-10-19T23:29:46.310Z,3.03
2022-10-19T23:32:17.848Z,3.05
2022-10-19T23:34:48.429Z,3.00
2022-10-19T23:37:18.025Z,3.03
2022-10-19T23:39:47.246Z,3.00
2022-10-19T23:42:16.468Z,2.97
2022-10-19T23:44:45.770Z,2.94
2022-10-19T23:47:16.529Z,2.90
2022-10-19T23:49:45.812Z,2.94
2022-10-19T23:52:15.087Z,2.91
2022-10-19T23:54:44.392Z,2.91
2022-10-19T23:57:13.691Z,2.89
2022-10-19T23:59:43.305Z,2.88
